sensor_id;sensor_type;location;lat;lon;timestamp;pressure;altitude;pressure_sealevel;temperature;humidity
20696;BME280;10507;52.754;13.040;2023-03-18T00:00:46;99877.13;;;9.28;70.95
20696;BME280;10507;52.754;13.040;2023-03-18T00:03:14;99887.63;;;9.31;71.09
20696;BME280;10507;52.754;13.040;2023-03-18T00:05:43;99873.28;;;9.33;70.65
20696;BME280;10507;52.754;13.040;2023-03-18T00:08:12;99879.47;;;9.34;70.69
20696;BME280;10507;52.754;13.040;2023-03-18T00:10:40;99894.31;;;9.38;70.93
20696;BME280;10507;52.754;13.040;2023-03-18T00:13:08;99890.88;;;9.36;70.83
20696;BME280;10507;52.754;13.040;2023-03-18T00:15:36;99883.31;;;9.44;70.13
20696;BME280;10507;52.754;13.040;2023-03-18T00:18:04;99880.03;;;9.39;70.39
20696;BME280;10507;52.754;13.040;2023-03-18T00:20:31;99873.00;;;9.38;70.90
20696;BME280;10507;52.754;13.040;2023-03-18T00:23:05;99873.94;;;9.37;70.37
20696;BME280;10507;52.754;13.040;2023-03-18T00:25:36;99874.13;;;9.34;70.94
20696;BME280;10507;52.754;13.040;2023-03-18T00:28:05;99870.53;;;9.35;70.91
20696;BME280;10507;52.754;13.040;2023-03-18T00:30:36;99868.81;;;9.34;70.68
20696;BME280;10507;52.754;13.040;2023-03-18T00:33:04;99878.69;;;9.32;70.87
20696;BME280;10507;52.754;13.040;2023-03-18T00:35:33;99884.19;;;9.29;70.61
20696;BME280;10507;52.754;13.040;2023-03-18T00:38:03;99882.31;;;9.31;70.93
20696;BME280;10507;52.754;13.040;2023-03-18T00:40:34;99884.19;;;9.29;70.91
20696;BME280;10507;52.754;13.040;2023-03-18T00:43:22;99870.19;;;9.25;70.99
20696;BME280;10507;52.754;13.040;2023-03-18T00:45:56;99872.69;;;9.28;71.05
20696;BME280;10507;52.754;13.040;2023-03-18T00:48:24;99864.34;;;9.19;70.73
20696;BME280;10507;52.754;13.040;2023-03-18T00:50:52;99883.50;;;9.25;70.67
20696;BME280;10507;52.754;13.040;2023-03-18T00:53:20;99857.47;;;9.14;71.46
20696;BME280;10507;52.754;13.040;2023-03-18T00:55:50;99852.41;;;9.10;71.60
20696;BME280;10507;52.754;13.040;2023-03-18T00:58:18;99853.72;;;9.03;71.41
20696;BME280;10507;52.754;13.040;2023-03-18T01:00:46;99856.91;;;8.93;72.26
20696;BME280;10507;52.754;13.040;2023-03-18T01:03:14;99874.75;;;8.91;72.43
20696;BME280;10507;52.754;13.040;2023-03-18T01:05:42;99894.34;;;8.90;72.44
20696;BME280;10507;52.754;13.040;2023-03-18T01:08:10;99898.03;;;8.88;72.65
20696;BME280;10507;52.754;13.040;2023-03-18T01:10:39;99900.00;;;8.84;71.87
20696;BME280;10507;52.754;13.040;2023-03-18T01:13:08;99903.59;;;8.83;72.18
20696;BME280;10507;52.754;13.040;2023-03-18T01:15:35;99893.97;;;8.81;72.12
20696;BME280;10507;52.754;13.040;2023-03-18T01:18:03;99908.06;;;8.83;73.21
20696;BME280;10507;52.754;13.040;2023-03-18T01:20:31;99894.16;;;8.78;72.78
20696;BME280;10507;52.754;13.040;2023-03-18T01:22:59;99897.00;;;8.74;72.73
20696;BME280;10507;52.754;13.040;2023-03-18T01:25:27;99906.75;;;8.74;73.33
20696;BME280;10507;52.754;13.040;2023-03-18T01:27:55;99921.81;;;8.75;72.44
20696;BME280;10507;52.754;13.040;2023-03-18T01:30:24;99921.03;;;8.73;72.78
20696;BME280;10507;52.754;13.040;2023-03-18T01:32:56;99938.81;;;8.72;73.44
20696;BME280;10507;52.754;13.040;2023-03-18T01:35:24;99944.91;;;8.74;73.26
20696;BME280;10507;52.754;13.040;2023-03-18T01:37:52;99943.25;;;8.72;73.06
20696;BME280;10507;52.754;13.040;2023-03-18T01:40:20;99948.41;;;8.75;73.00
20696;BME280;10507;52.754;13.040;2023-03-18T01:42:54;99955.38;;;8.78;72.86
20696;BME280;10507;52.754;13.040;2023-03-18T01:45:27;99959.75;;;8.79;73.28
20696;BME280;10507;52.754;13.040;2023-03-18T01:47:56;99952.72;;;8.78;72.66
20696;BME280;10507;52.754;13.040;2023-03-18T01:50:26;99958.03;;;8.78;72.62
20696;BME280;10507;52.754;13.040;2023-03-18T01:52:57;99963.34;;;8.78;73.66
20696;BME280;10507;52.754;13.040;2023-03-18T01:55:28;99972.19;;;8.78;73.04
20696;BME280;10507;52.754;13.040;2023-03-18T01:57:57;99964.22;;;8.78;72.39
20696;BME280;10507;52.754;13.040;2023-03-18T02:00:26;99967.56;;;8.82;72.31
20696;BME280;10507;52.754;13.040;2023-03-18T02:02:55;99965.06;;;8.79;72.31
20696;BME280;10507;52.754;13.040;2023-03-18T02:05:25;99964.06;;;8.81;72.75
20696;BME280;10507;52.754;13.040;2023-03-18T02:07:54;99960.63;;;8.79;72.69
20696;BME280;10507;52.754;13.040;2023-03-18T02:10:24;99963.19;;;8.81;72.58
20696;BME280;10507;52.754;13.040;2023-03-18T02:12:55;99960.44;;;8.82;72.81
20696;BME280;10507;52.754;13.040;2023-03-18T02:15:28;99951.59;;;8.82;72.81
20696;BME280;10507;52.754;13.040;2023-03-18T02:18:02;99957.72;;;8.84;72.53
20696;BME280;10507;52.754;13.040;2023-03-18T02:20:39;99955.13;;;8.82;71.75
20696;BME280;10507;52.754;13.040;2023-03-18T02:23:27;99948.16;;;8.80;72.33
20696;BME280;10507;52.754;13.040;2023-03-18T02:26:02;99945.66;;;8.77;72.86
20696;BME280;10507;52.754;13.040;2023-03-18T02:28:34;99944.72;;;8.78;72.81
20696;BME280;10507;52.754;13.040;2023-03-18T02:31:05;99942.13;;;8.76;72.46
20696;BME280;10507;52.754;13.040;2023-03-18T02:33:38;99951.75;;;8.79;71.98
20696;BME280;10507;52.754;13.040;2023-03-18T02:36:10;99958.22;;;8.74;72.90
20696;BME280;10507;52.754;13.040;2023-03-18T02:38:41;99948.56;;;8.72;72.05
20696;BME280;10507;52.754;13.040;2023-03-18T02:41:19;99946.94;;;8.69;72.76
20696;BME280;10507;52.754;13.040;2023-03-18T02:43:50;99950.47;;;8.70;72.96
20696;BME280;10507;52.754;13.040;2023-03-18T02:46:26;99945.38;;;8.65;72.98
20696;BME280;10507;52.754;13.040;2023-03-18T02:48:57;99946.31;;;8.64;72.23
20696;BME280;10507;52.754;13.040;2023-03-18T02:51:26;99953.34;;;8.65;72.66
20696;BME280;10507;52.754;13.040;2023-03-18T02:53:59;99954.47;;;8.61;73.30
20696;BME280;10507;52.754;13.040;2023-03-18T02:56:28;99976.56;;;8.63;72.92
20696;BME280;10507;52.754;13.040;2023-03-18T02:58:57;99987.88;;;8.67;73.32
20696;BME280;10507;52.754;13.040;2023-03-18T03:01:25;99992.28;;;8.68;72.39
20696;BME280;10507;52.754;13.040;2023-03-18T03:03:53;99990.47;;;8.68;72.85
20696;BME280;10507;52.754;13.040;2023-03-18T03:06:21;99980.66;;;8.69;73.17
20696;BME280;10507;52.754;13.040;2023-03-18T03:08:49;99990.47;;;8.68;72.98
20696;BME280;10507;52.754;13.040;2023-03-18T03:11:18;99991.31;;;8.69;72.01
20696;BME280;10507;52.754;13.040;2023-03-18T03:13:46;100008.00;;;8.72;72.64
20696;BME280;10507;52.754;13.040;2023-03-18T03:16:16;100008.78;;;8.74;72.52
20696;BME280;10507;52.754;13.040;2023-03-18T03:18:45;99998.13;;;8.74;72.36
20696;BME280;10507;52.754;13.040;2023-03-18T03:21:13;99980.66;;;8.69;72.23
20696;BME280;10507;52.754;13.040;2023-03-18T03:23:43;99995.63;;;8.71;72.08
20696;BME280;10507;52.754;13.040;2023-03-18T03:26:12;99986.94;;;8.68;72.78
20696;BME280;10507;52.754;13.040;2023-03-18T03:28:40;99987.88;;;8.67;72.40
20696;BME280;10507;52.754;13.040;2023-03-18T03:31:08;99994.22;;;8.64;72.44
20696;BME280;10507;52.754;13.040;2023-03-18T03:33:39;100000.41;;;8.65;72.61
20696;BME280;10507;52.754;13.040;2023-03-18T03:36:10;99996.94;;;8.63;73.05
20696;BME280;10507;52.754;13.040;2023-03-18T03:38:38;99997.19;;;8.58;73.57
20696;BME280;10507;52.754;13.040;2023-03-18T03:41:07;99992.97;;;8.54;72.52
20696;BME280;10507;52.754;13.040;2023-03-18T03:43:35;100003.63;;;8.54;72.93
20696;BME280;10507;52.754;13.040;2023-03-18T03:46:04;99990.47;;;8.51;73.00
20696;BME280;10507;52.754;13.040;2023-03-18T03:48:33;99983.53;;;8.48;72.85
20696;BME280;10507;52.754;13.040;2023-03-18T03:51:02;99988.13;;;8.45;73.19
20696;BME280;10507;52.754;13.040;2023-03-18T03:53:31;99977.66;;;8.42;73.24
20696;BME280;10507;52.754;13.040;2023-03-18T03:55:59;99985.00;;;8.37;74.15
20696;BME280;10507;52.754;13.040;2023-03-18T03:58:27;99989.44;;;8.36;73.19
20696;BME280;10507;52.754;13.040;2023-03-18T04:00:55;100003.63;;;8.37;73.31
20696;BME280;10507;52.754;13.040;2023-03-18T04:03:23;100019.72;;;8.33;73.67
20696;BME280;10507;52.754;13.040;2023-03-18T04:05:51;100017.28;;;8.29;74.19
20696;BME280;10507;52.754;13.040;2023-03-18T04:08:21;100029.00;;;8.25;73.53
20696;BME280;10507;52.754;13.040;2023-03-18T04:10:48;100040.66;;;8.22;74.60
20696;BME280;10507;52.754;13.040;2023-03-18T04:13:16;100027.69;;;8.16;74.16
20696;BME280;10507;52.754;13.040;2023-03-18T04:15:44;100034.00;;;8.13;74.64
20696;BME280;10507;52.754;13.040;2023-03-18T04:18:13;100045.66;;;8.11;75.29
20696;BME280;10507;52.754;13.040;2023-03-18T04:20:42;100038.16;;;8.02;74.54
20696;BME280;10507;52.754;13.040;2023-03-18T04:23:11;100066.53;;;8.01;75.38
20696;BME280;10507;52.754;13.040;2023-03-18T04:25:40;100074.72;;;7.97;75.47
20696;BME280;10507;52.754;13.040;2023-03-18T04:28:08;100087.75;;;8.03;75.36
20696;BME280;10507;52.754;13.040;2023-03-18T04:30:36;100099.06;;;8.06;74.73
20696;BME280;10507;52.754;13.040;2023-03-18T04:33:04;100092.91;;;8.06;75.66
20696;BME280;10507;52.754;13.040;2023-03-18T04:35:32;100110.56;;;8.07;75.64
20696;BME280;10507;52.754;13.040;2023-03-18T04:37:59;100104.44;;;8.05;75.17
20696;BME280;10507;52.754;13.040;2023-03-18T04:40:27;100106.41;;;8.01;75.40
20696;BME280;10507;52.754;13.040;2023-03-18T04:42:57;100117.75;;;8.05;75.50
20696;BME280;10507;52.754;13.040;2023-03-18T04:45:25;100121.34;;;8.04;75.83
20696;BME280;10507;52.754;13.040;2023-03-18T04:47:55;100124.78;;;8.06;75.63
20696;BME280;10507;52.754;13.040;2023-03-18T04:50:23;100120.41;;;8.05;74.91
20696;BME280;10507;52.754;13.040;2023-03-18T04:52:51;100127.38;;;8.07;75.82
20696;BME280;10507;52.754;13.040;2023-03-18T04:55:19;100111.94;;;7.97;74.95
20696;BME280;10507;52.754;13.040;2023-03-18T04:57:47;100108.09;;;7.85;76.41
20696;BME280;10507;52.754;13.040;2023-03-18T05:00:19;100113.63;;;7.80;75.94
20696;BME280;10507;52.754;13.040;2023-03-18T05:02:56;100136.88;;;7.75;77.34
20696;BME280;10507;52.754;13.040;2023-03-18T05:05:24;100148.34;;;7.76;77.09
20696;BME280;10507;52.754;13.040;2023-03-18T05:07:52;100137.19;;;7.69;76.14
20696;BME280;10507;52.754;13.040;2023-03-18T05:10:20;100144.47;;;7.64;76.58
20696;BME280;10507;52.754;13.040;2023-03-18T05:12:49;100158.03;;;7.58;77.23
20696;BME280;10507;52.754;13.040;2023-03-18T05:15:19;100164.28;;;7.57;77.03
20696;BME280;10507;52.754;13.040;2023-03-18T05:17:49;100180.09;;;7.60;77.47
20696;BME280;10507;52.754;13.040;2023-03-18T05:20:18;100163.28;;;7.59;77.34
20696;BME280;10507;52.754;13.040;2023-03-18T05:22:46;100166.16;;;7.55;77.79
20696;BME280;10507;52.754;13.040;2023-03-18T05:25:14;100168.09;;;7.51;77.28
20696;BME280;10507;52.754;13.040;2023-03-18T05:27:42;100163.13;;;7.43;77.36
20696;BME280;10507;52.754;13.040;2023-03-18T05:30:10;100166.03;;;7.37;77.47
20696;BME280;10507;52.754;13.040;2023-03-18T05:32:45;100207.38;;;7.44;78.46
20696;BME280;10507;52.754;13.040;2023-03-18T05:35:14;100207.47;;;7.41;78.73
20696;BME280;10507;52.754;13.040;2023-03-18T05:37:43;100216.50;;;7.37;78.86
20696;BME280;10507;52.754;13.040;2023-03-18T05:40:11;100217.19;;;7.42;78.42
20696;BME280;10507;52.754;13.040;2023-03-18T05:42:40;100216.38;;;7.40;78.69
20696;BME280;10507;52.754;13.040;2023-03-18T05:45:21;100148.53;;;7.13;79.01
20696;BME280;10507;52.754;13.040;2023-03-18T05:47:51;100106.50;;;6.83;79.32
20696;BME280;10507;52.754;13.040;2023-03-18T05:50:26;100222.56;;;6.78;81.16
20696;BME280;10507;52.754;13.040;2023-03-18T05:53:03;100330.47;;;6.99;81.99
20696;BME280;10507;52.754;13.040;2023-03-18T05:55:52;100345.75;;;7.16;81.51
20696;BME280;10507;52.754;13.040;2023-03-18T05:58:19;100325.13;;;7.23;80.55
20696;BME280;10507;52.754;13.040;2023-03-18T06:00:47;100315.72;;;7.14;81.25
20696;BME280;10507;52.754;13.040;2023-03-18T06:03:17;100334.66;;;7.06;82.04
20696;BME280;10507;52.754;13.040;2023-03-18T06:05:45;100336.50;;;7.04;81.89
20696;BME280;10507;52.754;13.040;2023-03-18T06:08:14;100363.84;;;7.06;82.41
20696;BME280;10507;52.754;13.040;2023-03-18T06:10:43;100375.88;;;6.93;83.57
20696;BME280;10507;52.754;13.040;2023-03-18T06:13:11;100437.38;;;7.04;84.54
20696;BME280;10507;52.754;13.040;2023-03-18T06:15:38;100438.78;;;7.13;84.15
20696;BME280;10507;52.754;13.040;2023-03-18T06:18:06;100425.69;;;7.31;83.54
20696;BME280;10507;52.754;13.040;2023-03-18T06:20:36;100382.38;;;7.50;81.29
20696;BME280;10507;52.754;13.040;2023-03-18T06:23:04;100364.19;;;7.62;80.91
20696;BME280;10507;52.754;13.040;2023-03-18T06:25:31;100328.41;;;7.70;80.33
20696;BME280;10507;52.754;13.040;2023-03-18T06:28:00;100344.28;;;7.93;79.61
20696;BME280;10507;52.754;13.040;2023-03-18T06:30:28;100365.53;;;8.13;79.26
20696;BME280;10507;52.754;13.040;2023-03-18T06:32:56;100407.13;;;8.55;78.62
20696;BME280;10507;52.754;13.040;2023-03-18T06:35:24;100408.44;;;9.03;76.80
20696;BME280;10507;52.754;13.040;2023-03-18T06:37:55;100397.59;;;9.62;75.31
20696;BME280;10507;52.754;13.040;2023-03-18T06:40:23;100389.44;;;10.34;73.10
20696;BME280;10507;52.754;13.040;2023-03-18T06:42:51;100313.03;;;10.81;70.78
20696;BME280;10507;52.754;13.040;2023-03-18T06:45:19;100297.22;;;11.24;69.87
20696;BME280;10507;52.754;13.040;2023-03-18T06:47:47;100296.97;;;11.73;67.98
20696;BME280;10507;52.754;13.040;2023-03-18T06:50:16;100223.88;;;11.87;67.85
20696;BME280;10507;52.754;13.040;2023-03-18T06:52:43;100182.16;;;11.99;67.26
20696;BME280;10507;52.754;13.040;2023-03-18T06:55:13;100156.06;;;11.88;67.04
20696;BME280;10507;52.754;13.040;2023-03-18T06:57:40;100145.28;;;11.90;67.46
20696;BME280;10507;52.754;13.040;2023-03-18T07:00:09;100229.38;;;12.56;66.03
20696;BME280;10507;52.754;13.040;2023-03-18T07:02:38;100099.03;;;12.29;65.70
20696;BME280;10507;52.754;13.040;2023-03-18T07:05:07;100021.91;;;12.09;65.77
20696;BME280;10507;52.754;13.040;2023-03-18T07:07:35;100044.97;;;11.82;67.18
20696;BME280;10507;52.754;13.040;2023-03-18T07:10:05;100145.84;;;12.09;67.29
20696;BME280;10507;52.754;13.040;2023-03-18T07:12:34;100112.28;;;12.18;66.82
20696;BME280;10507;52.754;13.040;2023-03-18T07:15:03;100118.78;;;12.41;65.92
20696;BME280;10507;52.754;13.040;2023-03-18T07:17:30;100111.53;;;12.28;66.23
20696;BME280;10507;52.754;13.040;2023-03-18T07:19:58;100120.50;;;12.69;65.73
20696;BME280;10507;52.754;13.040;2023-03-18T07:22:26;100162.19;;;12.86;66.14
20696;BME280;10507;52.754;13.040;2023-03-18T07:24:54;100110.97;;;12.90;64.83
20696;BME280;10507;52.754;13.040;2023-03-18T07:27:22;100203.69;;;13.33;65.01
20696;BME280;10507;52.754;13.040;2023-03-18T07:29:51;100039.50;;;13.04;65.28
20696;BME280;10507;52.754;13.040;2023-03-18T07:32:19;100095.78;;;13.17;65.35
20696;BME280;10507;52.754;13.040;2023-03-18T07:34:46;100102.41;;;13.11;65.80
20696;BME280;10507;52.754;13.040;2023-03-18T07:37:14;100125.19;;;13.31;65.59
20696;BME280;10507;52.754;13.040;2023-03-18T07:39:42;100217.34;;;13.56;65.18
20696;BME280;10507;52.754;13.040;2023-03-18T07:42:10;100247.06;;;13.91;64.93
20696;BME280;10507;52.754;13.040;2023-03-18T07:44:38;100032.69;;;13.49;65.12
20696;BME280;10507;52.754;13.040;2023-03-18T07:47:07;100120.78;;;13.43;66.44
20696;BME280;10507;52.754;13.040;2023-03-18T07:49:35;100235.06;;;13.84;65.92
20696;BME280;10507;52.754;13.040;2023-03-18T07:52:03;100231.81;;;14.17;64.74
20696;BME280;10507;52.754;13.040;2023-03-18T07:54:31;100256.50;;;14.35;64.75
20696;BME280;10507;52.754;13.040;2023-03-18T07:56:59;100064.00;;;13.99;64.33
20696;BME280;10507;52.754;13.040;2023-03-18T07:59:27;100144.00;;;13.93;65.39
20696;BME280;10507;52.754;13.040;2023-03-18T08:01:54;100188.63;;;14.20;64.81
20696;BME280;10507;52.754;13.040;2023-03-18T08:04:24;100054.44;;;13.70;65.94
20696;BME280;10507;52.754;13.040;2023-03-18T08:06:52;100010.19;;;13.26;66.84
20696;BME280;10507;52.754;13.040;2023-03-18T08:09:20;100075.31;;;13.28;66.90
20696;BME280;10507;52.754;13.040;2023-03-18T08:11:48;100060.28;;;13.13;68.10
20696;BME280;10507;52.754;13.040;2023-03-18T08:14:16;100055.38;;;12.94;67.79
20696;BME280;10507;52.754;13.040;2023-03-18T08:16:44;100048.81;;;12.85;68.44
20696;BME280;10507;52.754;13.040;2023-03-18T08:19:12;100085.84;;;12.66;69.36
20696;BME280;10507;52.754;13.040;2023-03-18T08:21:41;100165.56;;;12.62;70.63
20696;BME280;10507;52.754;13.040;2023-03-18T08:24:09;100195.06;;;12.75;69.84
20696;BME280;10507;52.754;13.040;2023-03-18T08:26:37;100198.91;;;12.71;70.99
20696;BME280;10507;52.754;13.040;2023-03-18T08:29:07;100210.50;;;12.72;70.04
20696;BME280;10507;52.754;13.040;2023-03-18T08:31:40;100215.31;;;12.79;70.87
20696;BME280;10507;52.754;13.040;2023-03-18T08:34:09;100185.81;;;12.66;69.72
20696;BME280;10507;52.754;13.040;2023-03-18T08:36:37;100192.53;;;12.59;70.87
20696;BME280;10507;52.754;13.040;2023-03-18T08:39:08;100170.09;;;12.47;70.82
20696;BME280;10507;52.754;13.040;2023-03-18T08:41:36;100222.03;;;12.45;71.72
20696;BME280;10507;52.754;13.040;2023-03-18T08:44:05;100277.00;;;12.65;71.65
20696;BME280;10507;52.754;13.040;2023-03-18T08:46:35;100337.31;;;12.85;71.09
20696;BME280;10507;52.754;13.040;2023-03-18T08:49:03;100349.28;;;12.94;71.46
20696;BME280;10507;52.754;13.040;2023-03-18T08:51:31;100301.03;;;12.94;70.98
20696;BME280;10507;52.754;13.040;2023-03-18T08:53:59;100276.41;;;12.74;72.27
20696;BME280;10507;52.754;13.040;2023-03-18T08:56:28;100276.03;;;12.66;71.66
20696;BME280;10507;52.754;13.040;2023-03-18T08:58:56;100305.09;;;12.72;71.94
20696;BME280;10507;52.754;13.040;2023-03-18T09:01:25;100293.41;;;12.73;71.11
20696;BME280;10507;52.754;13.040;2023-03-18T09:03:53;100277.38;;;12.59;72.06
20696;BME280;10507;52.754;13.040;2023-03-18T09:06:23;100322.34;;;12.54;72.75
20696;BME280;10507;52.754;13.040;2023-03-18T09:08:51;100395.28;;;12.86;72.75
20696;BME280;10507;52.754;13.040;2023-03-18T09:11:20;100395.00;;;13.05;72.61
20696;BME280;10507;52.754;13.040;2023-03-18T09:13:49;100454.78;;;13.20;72.60
20696;BME280;10507;52.754;13.040;2023-03-18T09:16:17;100475.41;;;13.61;71.56
20696;BME280;10507;52.754;13.040;2023-03-18T09:18:45;100510.78;;;13.95;71.10
20696;BME280;10507;52.754;13.040;2023-03-18T09:21:14;100425.91;;;13.92;70.95
20696;BME280;10507;52.754;13.040;2023-03-18T09:23:42;100545.34;;;14.26;71.00
20696;BME280;10507;52.754;13.040;2023-03-18T09:26:11;100483.59;;;14.52;69.98
20696;BME280;10507;52.754;13.040;2023-03-18T09:28:40;100522.13;;;14.78;69.75
20696;BME280;10507;52.754;13.040;2023-03-18T09:31:09;100511.69;;;14.86;70.46
20696;BME280;10507;52.754;13.040;2023-03-18T09:33:38;100428.16;;;14.64;70.08
20696;BME280;10507;52.754;13.040;2023-03-18T09:36:08;100451.78;;;14.46;71.26
20696;BME280;10507;52.754;13.040;2023-03-18T09:38:36;100512.22;;;14.66;71.42
20696;BME280;10507;52.754;13.040;2023-03-18T09:41:09;100488.16;;;14.77;70.93
20696;BME280;10507;52.754;13.040;2023-03-18T09:43:52;100483.34;;;14.82;70.49
20696;BME280;10507;52.754;13.040;2023-03-18T09:46:31;100461.50;;;14.87;70.21
20696;BME280;10507;52.754;13.040;2023-03-18T09:49:19;100470.31;;;14.76;71.23
20696;BME280;10507;52.754;13.040;2023-03-18T09:51:56;100465.03;;;14.87;71.36
20696;BME280;10507;52.754;13.040;2023-03-18T09:54:31;100527.63;;;15.02;71.18
20696;BME280;10507;52.754;13.040;2023-03-18T09:57:02;100452.44;;;14.88;71.17
20696;BME280;10507;52.754;13.040;2023-03-18T09:59:37;100538.78;;;15.09;71.37
20696;BME280;10507;52.754;13.040;2023-03-18T10:02:17;100545.66;;;15.38;70.85
20696;BME280;10507;52.754;13.040;2023-03-18T10:04:49;100542.63;;;15.56;70.23
20696;BME280;10507;52.754;13.040;2023-03-18T10:07:21;100505.16;;;15.40;70.82
20696;BME280;10507;52.754;13.040;2023-03-18T10:09:53;100545.41;;;15.54;71.15
20696;BME280;10507;52.754;13.040;2023-03-18T10:12:28;100602.03;;;15.78;71.38
20696;BME280;10507;52.754;13.040;2023-03-18T10:15:09;100579.34;;;15.94;70.93
20696;BME280;10507;52.754;13.040;2023-03-18T10:17:43;100545.00;;;15.85;70.92
20696;BME280;10507;52.754;13.040;2023-03-18T10:20:16;100496.63;;;15.72;71.06
20696;BME280;10507;52.754;13.040;2023-03-18T10:22:59;100537.50;;;15.77;71.58
20696;BME280;10507;52.754;13.040;2023-03-18T10:25:34;100644.25;;;16.15;72.05
20696;BME280;10507;52.754;13.040;2023-03-18T10:31:15;100655.63;;;16.55;72.41
20696;BME280;10507;52.754;13.040;2023-03-18T10:33:54;100682.53;;;16.68;72.05
20696;BME280;10507;52.754;13.040;2023-03-18T10:36:26;100625.41;;;16.74;71.90
20696;BME280;10507;52.754;13.040;2023-03-18T10:38:58;100627.31;;;16.85;71.62
20696;BME280;10507;52.754;13.040;2023-03-18T10:41:30;100495.09;;;16.51;71.63
20696;BME280;10507;52.754;13.040;2023-03-18T10:44:02;100507.72;;;16.51;71.07
20696;BME280;10507;52.754;13.040;2023-03-18T10:46:32;100529.16;;;16.52;71.52
20696;BME280;10507;52.754;13.040;2023-03-18T10:49:06;100467.59;;;16.24;71.92
20696;BME280;10507;52.754;13.040;2023-03-18T10:51:42;100523.47;;;16.33;72.57
20696;BME280;10507;52.754;13.040;2023-03-18T10:54:18;100565.19;;;16.51;72.28
20696;BME280;10507;52.754;13.040;2023-03-18T10:56:48;100553.56;;;16.62;71.94
20696;BME280;10507;52.754;13.040;2023-03-18T10:59:20;100596.19;;;16.81;71.68
20696;BME280;10507;52.754;13.040;2023-03-18T11:01:55;100594.97;;;16.85;72.18
20696;BME280;10507;52.754;13.040;2023-03-18T11:04:27;100567.50;;;16.80;71.63
20696;BME280;10507;52.754;13.040;2023-03-18T11:06:57;100609.69;;;16.92;72.19
20696;BME280;10507;52.754;13.040;2023-03-18T11:09:30;100596.75;;;17.09;71.28
20696;BME280;10507;52.754;13.040;2023-03-18T11:12:03;100500.97;;;16.92;71.36
20696;BME280;10507;52.754;13.040;2023-03-18T11:14:32;100535.91;;;16.93;71.68
20696;BME280;10507;52.754;13.040;2023-03-18T11:17:05;100560.31;;;17.03;71.82
20696;BME280;10507;52.754;13.040;2023-03-18T11:19:47;100607.19;;;17.24;71.50
20696;BME280;10507;52.754;13.040;2023-03-18T11:22:18;100572.50;;;17.31;71.33
20696;BME280;10507;52.754;13.040;2023-03-18T11:25:01;100569.53;;;17.23;71.97
20696;BME280;10507;52.754;13.040;2023-03-18T11:27:37;100560.31;;;17.25;71.25
20696;BME280;10507;52.754;13.040;2023-03-18T11:30:20;100544.25;;;17.24;71.61
20696;BME280;10507;52.754;13.040;2023-03-18T11:33:11;100613.47;;;17.36;72.13
20696;BME280;10507;52.754;13.040;2023-03-18T11:35:43;100662.81;;;17.61;73.05
20696;BME280;10507;52.754;13.040;2023-03-18T11:38:14;100664.28;;;17.65;72.69
20696;BME280;10507;52.754;13.040;2023-03-18T11:40:42;100522.78;;;17.45;71.74
20696;BME280;10507;52.754;13.040;2023-03-18T11:43:16;100558.25;;;17.52;72.41
20696;BME280;10507;52.754;13.040;2023-03-18T11:45:49;100586.72;;;17.67;71.77
20696;BME280;10507;52.754;13.040;2023-03-18T11:48:28;100609.81;;;17.82;71.58
20696;BME280;10507;52.754;13.040;2023-03-18T11:51:10;100529.38;;;17.75;70.85
20696;BME280;10507;52.754;13.040;2023-03-18T11:53:51;100501.50;;;17.74;70.59
20696;BME280;10507;52.754;13.040;2023-03-18T11:56:28;100487.75;;;17.77;70.02
20696;BME280;10507;52.754;13.040;2023-03-18T11:59:13;100494.38;;;17.84;70.04
20696;BME280;10507;52.754;13.040;2023-03-18T12:01:51;100439.63;;;17.71;69.87
20696;BME280;10507;52.754;13.040;2023-03-18T12:04:59;100343.34;;;17.28;70.15
20696;BME280;10507;52.754;13.040;2023-03-18T12:07:54;100361.69;;;17.13;70.53
20696;BME280;10507;52.754;13.040;2023-03-18T12:10:28;100420.75;;;17.28;70.80
20696;BME280;10507;52.754;13.040;2023-03-18T12:13:12;100424.53;;;17.36;70.48
20696;BME280;10507;52.754;13.040;2023-03-18T12:15:48;100402.06;;;17.47;69.90
20696;BME280;10507;52.754;13.040;2023-03-18T12:18:31;100393.56;;;17.52;69.15
20696;BME280;10507;52.754;13.040;2023-03-18T12:21:11;100345.00;;;17.52;69.06
20696;BME280;10507;52.754;13.040;2023-03-18T12:23:57;100350.25;;;17.53;69.26
20696;BME280;10507;52.754;13.040;2023-03-18T12:26:33;100388.88;;;17.65;69.47
20696;BME280;10507;52.754;13.040;2023-03-18T12:32:24;100373.34;;;17.78;68.28
20696;BME280;10507;52.754;13.040;2023-03-18T12:35:01;100366.81;;;17.81;68.93
20696;BME280;10507;52.754;13.040;2023-03-18T12:37:40;100290.94;;;17.63;67.88
20696;BME280;10507;52.754;13.040;2023-03-18T12:40:27;100318.91;;;17.62;68.90
20696;BME280;10507;52.754;13.040;2023-03-18T12:43:14;100345.13;;;17.71;68.36
20696;BME280;10507;52.754;13.040;2023-03-18T12:45:49;100359.69;;;17.80;68.37
20696;BME280;10507;52.754;13.040;2023-03-18T12:48:23;100267.16;;;17.57;68.75
20696;BME280;10507;52.754;13.040;2023-03-18T12:51:11;100289.81;;;17.44;69.16
20696;BME280;10507;52.754;13.040;2023-03-18T12:53:43;100265.25;;;17.27;69.61
20696;BME280;10507;52.754;13.040;2023-03-18T12:56:16;100320.63;;;17.31;70.05
20696;BME280;10507;52.754;13.040;2023-03-18T12:58:48;100368.31;;;17.41;70.61
20696;BME280;10507;52.754;13.040;2023-03-18T13:01:19;100402.16;;;17.57;69.81
20696;BME280;10507;52.754;13.040;2023-03-18T13:03:55;100379.44;;;17.59;69.97
20696;BME280;10507;52.754;13.040;2023-03-18T13:06:29;100381.63;;;17.65;69.37
20696;BME280;10507;52.754;13.040;2023-03-18T13:09:06;100373.41;;;17.67;69.58
20696;BME280;10507;52.754;13.040;2023-03-18T13:11:56;100334.13;;;17.63;69.43
20696;BME280;10507;52.754;13.040;2023-03-18T13:14:35;100351.31;;;17.62;69.43